sensor_id;sensor_type;location;lat;lon;timestamp;pressure;altitude;pressure_sealevel;temperature;humidity
23619;BME280;18207;32.078;34.818;2023-04-04T00:01:39;100398.81;;;26.31;33.81
23619;BME280;18207;32.078;34.818;2023-04-04T00:04:10;100391.19;;;26.32;33.66
23619;BME280;18207;32.078;34.818;2023-04-04T00:06:42;100391.19;;;26.32;33.67
23619;BME280;18207;32.078;34.818;2023-04-04T00:09:14;100385.56;;;26.32;33.75
23619;BME280;18207;32.078;34.818;2023-04-04T00:11:45;100382.75;;;26.32;33.93
23619;BME280;18207;32.078;34.818;2023-04-04T00:14:16;100388.38;;;26.32;33.80
23619;BME280;18207;32.078;34.818;2023-04-04T00:16:46;100383.94;;;26.31;33.54
23619;BME280;18207;32.078;34.818;2023-04-04T00:19:17;100383.09;;;26.30;33.55
23619;BME280;18207;32.078;34.818;2023-04-04T00:21:49;100383.09;;;26.30;33.76
23619;BME280;18207;32.078;34.818;2023-04-04T00:24:20;100375.03;;;26.29;33.61
23619;BME280;18207;32.078;34.818;2023-04-04T00:26:50;100379.06;;;26.28;33.41
23619;BME280;18207;32.078;34.818;2023-04-04T00:29:20;100379.44;;;26.26;33.74
23619;BME280;18207;32.078;34.818;2023-04-04T00:31:50;100380.63;;;26.25;33.53
23619;BME280;18207;32.078;34.818;2023-04-04T00:34:22;100374.16;;;26.25;33.59
23619;BME280;18207;32.078;34.818;2023-04-04T00:36:54;100371.75;;;26.23;33.37
23619;BME280;18207;32.078;34.818;2023-04-04T00:39:24;100373.78;;;26.23;33.42
23619;BME280;18207;32.078;34.818;2023-04-04T00:41:56;100372.13;;;26.22;33.44
23619;BME280;18207;32.078;34.818;2023-04-04T00:44:26;100372.50;;;26.20;33.48
23619;BME280;18207;32.078;34.818;2023-04-04T00:46:57;100375.72;;;26.19;33.37
23619;BME280;18207;32.078;34.818;2023-04-04T00:49:27;100385.34;;;26.18;33.42
23619;BME280;18207;32.078;34.818;2023-04-04T00:51:59;100380.91;;;26.17;33.33
23619;BME280;18207;32.078;34.818;2023-04-04T00:54:30;100378.50;;;26.15;33.47
23619;BME280;18207;32.078;34.818;2023-04-04T00:57:01;100383.28;;;26.15;33.35
23619;BME280;18207;32.078;34.818;2023-04-04T00:59:32;100384.88;;;26.12;33.16
23619;BME280;18207;32.078;34.818;2023-04-04T01:02:03;100382.44;;;26.11;33.29
23619;BME280;18207;32.078;34.818;2023-04-04T01:04:34;100370.75;;;26.09;33.33
23619;BME280;18207;32.078;34.818;2023-04-04T01:07:06;100379.19;;;26.09;33.38
23619;BME280;18207;32.078;34.818;2023-04-04T01:09:37;100375.59;;;26.08;33.34
23619;BME280;18207;32.078;34.818;2023-04-04T01:12:08;100379.16;;;26.05;33.42
23619;BME280;18207;32.078;34.818;2023-04-04T01:14:38;100381.13;;;26.05;33.26
23619;BME280;18207;32.078;34.818;2023-04-04T01:17:09;100373.09;;;26.03;33.28
23619;BME280;18207;32.078;34.818;2023-04-04T01:19:52;100364.19;;;26.01;33.25
23619;BME280;18207;32.078;34.818;2023-04-04T01:22:29;100362.97;;;25.99;33.20
23619;BME280;18207;32.078;34.818;2023-04-04T01:25:03;100362.53;;;25.97;33.52
23619;BME280;18207;32.078;34.818;2023-04-04T01:27:36;100362.91;;;25.96;33.26
23619;BME280;18207;32.078;34.818;2023-04-04T01:30:08;100361.69;;;25.93;33.13
23619;BME280;18207;32.078;34.818;2023-04-04T01:32:44;100363.66;;;25.93;33.20
23619;BME280;18207;32.078;34.818;2023-04-04T01:35:31;100363.66;;;25.93;33.34
23619;BME280;18207;32.078;34.818;2023-04-04T01:38:13;100354.00;;;25.90;33.29
23619;BME280;18207;32.078;34.818;2023-04-04T01:40:50;100353.56;;;25.88;33.10
23619;BME280;18207;32.078;34.818;2023-04-04T01:43:23;100358.38;;;25.88;33.57
23619;BME280;18207;32.078;34.818;2023-04-04T01:45:54;100359.56;;;25.87;33.46
23619;BME280;18207;32.078;34.818;2023-04-04T01:48:24;100361.56;;;25.86;33.04
23619;BME280;18207;32.078;34.818;2023-04-04T01:50:56;100352.31;;;25.86;33.25
23619;BME280;18207;32.078;34.818;2023-04-04T01:53:26;100358.34;;;25.84;33.23
23619;BME280;18207;32.078;34.818;2023-04-04T01:55:56;100349.06;;;25.84;33.30
23619;BME280;18207;32.078;34.818;2023-04-04T01:58:28;100350.25;;;25.83;33.30
23619;BME280;18207;32.078;34.818;2023-04-04T02:00:59;100354.25;;;25.82;33.27
23619;BME280;18207;32.078;34.818;2023-04-04T02:03:30;100361.06;;;25.81;33.27
23619;BME280;18207;32.078;34.818;2023-04-04T02:06:00;100363.09;;;25.80;33.10
23619;BME280;18207;32.078;34.818;2023-04-04T02:08:31;100366.72;;;25.81;33.31
23619;BME280;18207;32.078;34.818;2023-04-04T02:11:01;100359.44;;;25.80;32.98
23619;BME280;18207;32.078;34.818;2023-04-04T02:13:32;100365.91;;;25.80;33.31
23619;BME280;18207;32.078;34.818;2023-04-04T02:16:05;100367.09;;;25.79;33.24
23619;BME280;18207;32.078;34.818;2023-04-04T02:18:36;100361.88;;;25.78;33.36
23619;BME280;18207;32.078;34.818;2023-04-04T02:21:06;100361.88;;;25.78;33.02
23619;BME280;18207;32.078;34.818;2023-04-04T02:23:37;100362.22;;;25.76;33.16
23619;BME280;18207;32.078;34.818;2023-04-04T02:26:07;100361.78;;;25.74;32.92
23619;BME280;18207;32.078;34.818;2023-04-04T02:28:40;100352.50;;;25.74;33.27
23619;BME280;18207;32.078;34.818;2023-04-04T02:31:10;100365.78;;;25.73;33.36
23619;BME280;18207;32.078;34.818;2023-04-04T02:33:40;100377.41;;;25.72;33.06
23619;BME280;18207;32.078;34.818;2023-04-04T02:36:11;100373.78;;;25.71;33.15
23619;BME280;18207;32.078;34.818;2023-04-04T02:38:40;100371.38;;;25.70;32.94
23619;BME280;18207;32.078;34.818;2023-04-04T02:41:11;100380.16;;;25.68;33.17
23619;BME280;18207;32.078;34.818;2023-04-04T02:43:44;100376.56;;;25.68;33.16
23619;BME280;18207;32.078;34.818;2023-04-04T02:46:14;100376.13;;;25.66;33.06
23619;BME280;18207;32.078;34.818;2023-04-04T02:48:48;100383.31;;;25.63;33.03
23619;BME280;18207;32.078;34.818;2023-04-04T02:51:19;100382.50;;;25.63;33.01
23619;BME280;18207;32.078;34.818;2023-04-04T02:53:49;100379.25;;;25.61;33.27
23619;BME280;18207;32.078;34.818;2023-04-04T02:56:20;100382.44;;;25.59;33.12
23619;BME280;18207;32.078;34.818;2023-04-04T02:58:52;100382.44;;;25.59;33.13
23619;BME280;18207;32.078;34.818;2023-04-04T03:01:23;100390.44;;;25.57;32.98
23619;BME280;18207;32.078;34.818;2023-04-04T03:03:53;100398.88;;;25.57;32.93
23619;BME280;18207;32.078;34.818;2023-04-04T03:06:24;100410.16;;;25.57;32.56
23619;BME280;18207;32.078;34.818;2023-04-04T03:08:54;100407.34;;;25.57;32.79
23619;BME280;18207;32.078;34.818;2023-04-04T03:11:25;100412.16;;;25.57;32.54
23619;BME280;18207;32.078;34.818;2023-04-04T03:13:57;100414.16;;;25.56;32.99
23619;BME280;18207;32.078;34.818;2023-04-04T03:16:28;100415.78;;;25.57;32.63
23619;BME280;18207;32.078;34.818;2023-04-04T03:18:58;100423.41;;;25.57;32.54
23619;BME280;18207;32.078;34.818;2023-04-04T03:21:29;100422.22;;;25.58;32.64
23619;BME280;18207;32.078;34.818;2023-04-04T03:24:00;100417.41;;;25.58;32.80
23619;BME280;18207;32.078;34.818;2023-04-04T03:26:30;100425.06;;;25.58;32.95
23619;BME280;18207;32.078;34.818;2023-04-04T03:29:03;100421.03;;;25.59;32.75
23619;BME280;18207;32.078;34.818;2023-04-04T03:31:34;100421.84;;;25.59;32.92
23619;BME280;18207;32.078;34.818;2023-04-04T03:34:04;100420.22;;;25.58;32.72
23619;BME280;18207;32.078;34.818;2023-04-04T03:36:34;100423.41;;;25.57;32.79
23619;BME280;18207;32.078;34.818;2023-04-04T03:39:05;100428.22;;;25.56;32.63
23619;BME280;18207;32.078;34.818;2023-04-04T03:41:35;100437.06;;;25.55;32.57
23619;BME280;18207;32.078;34.818;2023-04-04T03:44:08;100438.63;;;25.52;32.62
23619;BME280;18207;32.078;34.818;2023-04-04T03:46:39;100437.38;;;25.50;32.46
23619;BME280;18207;32.078;34.818;2023-04-04T03:49:09;100440.09;;;25.46;32.51
23619;BME280;18207;32.078;34.818;2023-04-04T03:51:40;100439.69;;;25.44;32.47
23619;BME280;18207;32.078;34.818;2023-04-04T03:54:10;100432.44;;;25.43;32.78
23619;BME280;18207;32.078;34.818;2023-04-04T03:56:41;100437.63;;;25.41;32.72
23619;BME280;18207;32.078;34.818;2023-04-04T03:59:15;100437.63;;;25.41;32.80
23619;BME280;18207;32.078;34.818;2023-04-04T04:01:46;100440.00;;;25.39;32.88
23619;BME280;18207;32.078;34.818;2023-04-04T04:04:16;100440.81;;;25.40;33.21
23619;BME280;18207;32.078;34.818;2023-04-04T04:06:48;100458.50;;;25.40;32.79
23619;BME280;18207;32.078;34.818;2023-04-04T04:09:19;100453.69;;;25.41;32.83
23619;BME280;18207;32.078;34.818;2023-04-04T04:11:49;100456.50;;;25.41;32.80
23619;BME280;18207;32.078;34.818;2023-04-04T04:14:22;100458.94;;;25.42;32.72
23619;BME280;18207;32.078;34.818;2023-04-04T04:16:53;100459.41;;;25.44;33.04
23619;BME280;18207;32.078;34.818;2023-04-04T04:19:23;100454.56;;;25.45;33.08
23619;BME280;18207;32.078;34.818;2023-04-04T04:21:54;100455.81;;;25.47;33.16
23619;BME280;18207;32.078;34.818;2023-04-04T04:24:24;100444.56;;;25.47;32.86
23619;BME280;18207;32.078;34.818;2023-04-04T04:26:54;100449.81;;;25.49;32.89
23619;BME280;18207;32.078;34.818;2023-04-04T04:29:26;100455.06;;;25.50;32.84
23619;BME280;18207;32.078;34.818;2023-04-04T04:31:58;100452.69;;;25.52;32.89
23619;BME280;18207;32.078;34.818;2023-04-04T04:34:28;100470.38;;;25.53;32.96
23619;BME280;18207;32.078;34.818;2023-04-04T04:36:59;100460.75;;;25.54;32.93
23619;BME280;18207;32.078;34.818;2023-04-04T04:39:30;100461.19;;;25.56;32.97
23619;BME280;18207;32.078;34.818;2023-04-04T04:42:01;100456.81;;;25.58;32.88
23619;BME280;18207;32.078;34.818;2023-04-04T04:44:33;100464.91;;;25.60;33.09
23619;BME280;18207;32.078;34.818;2023-04-04T04:47:03;100460.50;;;25.62;33.42
23619;BME280;18207;32.078;34.818;2023-04-04T04:49:34;100460.94;;;25.64;33.35
23619;BME280;18207;32.078;34.818;2023-04-04T04:52:05;100462.97;;;25.67;33.18
23619;BME280;18207;32.078;34.818;2023-04-04T04:54:35;100464.66;;;25.72;33.02
23619;BME280;18207;32.078;34.818;2023-04-04T04:57:06;100450.66;;;25.75;33.01
23619;BME280;18207;32.078;34.818;2023-04-04T04:59:38;100449.53;;;25.80;33.26
23619;BME280;18207;32.078;34.818;2023-04-04T05:02:09;100462.13;;;25.86;33.12
23619;BME280;18207;32.078;34.818;2023-04-04T05:04:39;100465.78;;;25.90;33.15
23619;BME280;18207;32.078;34.818;2023-04-04T05:07:12;100461.09;;;25.97;33.09
23619;BME280;18207;32.078;34.818;2023-04-04T05:09:42;100461.59;;;26.02;33.00
23619;BME280;18207;32.078;34.818;2023-04-04T05:12:12;100454.44;;;26.08;33.20
23619;BME280;18207;32.078;34.818;2023-04-04T05:14:45;100459.78;;;26.17;33.05
23619;BME280;18207;32.078;34.818;2023-04-04T05:17:15;100464.72;;;26.23;33.29
23619;BME280;18207;32.078;34.818;2023-04-04T05:19:46;100464.41;;;26.28;33.36
23619;BME280;18207;32.078;34.818;2023-04-04T05:22:17;100467.31;;;26.35;33.20
23619;BME280;18207;32.078;34.818;2023-04-04T05:24:47;100463.00;;;26.41;33.18
23619;BME280;18207;32.078;34.818;2023-04-04T05:27:19;100468.72;;;26.48;33.04
23619;BME280;18207;32.078;34.818;2023-04-04T05:29:51;100464.81;;;26.56;32.92
23619;BME280;18207;32.078;34.818;2023-04-04T05:32:22;100463.28;;;26.62;32.95
23619;BME280;18207;32.078;34.818;2023-04-04T05:34:52;100466.19;;;26.69;32.87
23619;BME280;18207;32.078;34.818;2023-04-04T05:37:23;100469.09;;;26.76;32.83
23619;BME280;18207;32.078;34.818;2023-04-04T05:39:53;100461.91;;;26.82;32.78
23619;BME280;18207;32.078;34.818;2023-04-04T05:42:24;100472.09;;;26.90;32.72
23619;BME280;18207;32.078;34.818;2023-04-04T05:44:56;100472.19;;;26.97;32.93
23619;BME280;18207;32.078;34.818;2023-04-04T05:47:25;100474.28;;;27.03;32.68
23619;BME280;18207;32.078;34.818;2023-04-04T05:49:56;100471.56;;;27.10;32.50
23619;BME280;18207;32.078;34.818;2023-04-04T05:52:27;100485.34;;;27.19;32.97
23619;BME280;18207;32.078;34.818;2023-04-04T05:54:57;100480.59;;;27.26;32.71
23619;BME280;18207;32.078;34.818;2023-04-04T05:57:28;100483.91;;;27.35;32.61
23619;BME280;18207;32.078;34.818;2023-04-04T06:00:02;100490.03;;;27.44;32.72
23619;BME280;18207;32.078;34.818;2023-04-04T06:02:32;100496.59;;;27.52;32.60
23619;BME280;18207;32.078;34.818;2023-04-04T06:05:06;100496.28;;;27.60;32.39
23619;BME280;18207;32.078;34.818;2023-04-04T06:07:36;100502.44;;;27.69;32.39
23619;BME280;18207;32.078;34.818;2023-04-04T06:10:08;100500.47;;;27.76;32.47
23619;BME280;18207;32.078;34.818;2023-04-04T06:12:38;100496.53;;;27.84;32.48
23619;BME280;18207;32.078;34.818;2023-04-04T06:15:11;100511.13;;;27.93;32.55
23619;BME280;18207;32.078;34.818;2023-04-04T06:17:42;100509.97;;;28.01;32.29
23619;BME280;18207;32.078;34.818;2023-04-04T06:20:12;100499.94;;;28.11;32.19
23619;BME280;18207;32.078;34.818;2023-04-04T06:22:43;100504.47;;;28.19;32.23
23619;BME280;18207;32.078;34.818;2023-04-04T06:25:13;100501.31;;;28.27;32.37
23619;BME280;18207;32.078;34.818;2023-04-04T06:27:43;100504.59;;;28.36;32.03
23619;BME280;18207;32.078;34.818;2023-04-04T06:30:16;100501.84;;;28.47;32.18
23619;BME280;18207;32.078;34.818;2023-04-04T06:32:47;100508.34;;;28.54;31.72
23619;BME280;18207;32.078;34.818;2023-04-04T06:35:18;100498.31;;;28.63;31.96
23619;BME280;18207;32.078;34.818;2023-04-04T06:37:54;100507.66;;;28.74;31.70
23619;BME280;18207;32.078;34.818;2023-04-04T06:40:24;100508.53;;;28.82;31.54
23619;BME280;18207;32.078;34.818;2023-04-04T06:42:54;100509.78;;;28.91;31.69
23619;BME280;18207;32.078;34.818;2023-04-04T06:45:27;100513.03;;;29.00;31.37
23619;BME280;18207;32.078;34.818;2023-04-04T06:48:00;100517.94;;;29.10;31.45
23619;BME280;18207;32.078;34.818;2023-04-04T06:50:31;100525.66;;;29.20;31.62
23619;BME280;18207;32.078;34.818;2023-04-04T06:53:02;100521.25;;;29.30;31.21
23619;BME280;18207;32.078;34.818;2023-04-04T06:55:34;100521.28;;;29.40;31.48
23619;BME280;18207;32.078;34.818;2023-04-04T06:58:04;100520.09;;;29.48;31.36
23619;BME280;18207;32.078;34.818;2023-04-04T07:00:36;100527.81;;;29.58;31.18
23619;BME280;18207;32.078;34.818;2023-04-04T07:03:08;100522.56;;;29.67;31.24
23619;BME280;18207;32.078;34.818;2023-04-04T07:05:38;100533.09;;;29.77;31.05
23619;BME280;18207;32.078;34.818;2023-04-04T07:08:09;100526.63;;;29.87;30.84
23619;BME280;18207;32.078;34.818;2023-04-04T07:10:40;100531.94;;;29.95;30.97
23619;BME280;18207;32.078;34.818;2023-04-04T07:13:10;100533.16;;;30.05;31.03
23619;BME280;18207;32.078;34.818;2023-04-04T07:15:45;100523.00;;;30.14;30.89
23619;BME280;18207;32.078;34.818;2023-04-04T07:18:17;100526.66;;;30.22;30.76
23619;BME280;18207;32.078;34.818;2023-04-04T07:20:48;100517.72;;;30.30;31.02
23619;BME280;18207;32.078;34.818;2023-04-04T07:23:18;100523.81;;;30.39;31.18
23619;BME280;18207;32.078;34.818;2023-04-04T07:25:48;100518.91;;;30.46;30.86
23619;BME280;18207;32.078;34.818;2023-04-04T07:28:20;100523.41;;;30.54;31.17
23619;BME280;18207;32.078;34.818;2023-04-04T07:30:52;100516.50;;;30.62;30.58
23619;BME280;18207;32.078;34.818;2023-04-04T07:33:22;100519.31;;;30.69;31.10
23619;BME280;18207;32.078;34.818;2023-04-04T07:35:53;100516.03;;;30.78;30.89
23619;BME280;18207;32.078;34.818;2023-04-04T07:38:23;100513.16;;;30.85;30.46
23619;BME280;18207;32.078;34.818;2023-04-04T07:40:55;100515.97;;;30.92;30.31
23619;BME280;18207;32.078;34.818;2023-04-04T07:43:25;100514.31;;;31.01;30.72
23619;BME280;18207;32.078;34.818;2023-04-04T07:45:58;100515.13;;;31.09;30.21
23619;BME280;18207;32.078;34.818;2023-04-04T07:48:28;100513.88;;;31.17;30.35
23619;BME280;18207;32.078;34.818;2023-04-04T07:50:58;100521.53;;;31.23;30.01
23619;BME280;18207;32.078;34.818;2023-04-04T07:53:31;100515.84;;;31.30;30.36
23619;BME280;18207;32.078;34.818;2023-04-04T07:56:02;100519.84;;;31.36;29.91
23619;BME280;18207;32.078;34.818;2023-04-04T07:58:34;100519.44;;;31.41;29.90
23619;BME280;18207;32.078;34.818;2023-04-04T08:01:06;100521.41;;;31.47;30.19
23619;BME280;18207;32.078;34.818;2023-04-04T08:03:36;100518.91;;;31.53;29.76
23619;BME280;18207;32.078;34.818;2023-04-04T08:06:07;100518.53;;;31.58;29.43
23619;BME280;18207;32.078;34.818;2023-04-04T08:08:38;100512.41;;;31.63;29.81
23619;BME280;18207;32.078;34.818;2023-04-04T08:11:08;100513.59;;;31.69;29.27
23619;BME280;18207;32.078;34.818;2023-04-04T08:13:38;100511.13;;;31.74;29.44
23619;BME280;18207;32.078;34.818;2023-04-04T08:16:10;100511.06;;;31.81;29.35
23619;BME280;18207;32.078;34.818;2023-04-04T08:18:41;100509.78;;;31.86;28.81
23619;BME280;18207;32.078;34.818;2023-04-04T08:21:12;100508.09;;;31.92;29.29
23619;BME280;18207;32.078;34.818;2023-04-04T08:23:43;100514.16;;;31.97;29.31
23619;BME280;18207;32.078;34.818;2023-04-04T08:26:13;100502.34;;;32.02;29.13
23619;BME280;18207;32.078;34.818;2023-04-04T08:28:44;100501.09;;;32.07;28.96
23619;BME280;18207;32.078;34.818;2023-04-04T08:31:16;100501.09;;;32.10;28.82
23619;BME280;18207;32.078;34.818;2023-04-04T08:33:47;100514.47;;;32.13;29.00
23619;BME280;18207;32.078;34.818;2023-04-04T08:36:17;100496.16;;;32.18;28.85
23619;BME280;18207;32.078;34.818;2023-04-04T08:38:47;100500.56;;;32.22;29.03
23619;BME280;18207;32.078;34.818;2023-04-04T08:41:18;100497.69;;;32.25;28.70
23619;BME280;18207;32.078;34.818;2023-04-04T08:43:52;100496.03;;;32.28;28.88
23619;BME280;18207;32.078;34.818;2023-04-04T08:46:26;100497.25;;;32.30;29.12
23619;BME280;18207;32.078;34.818;2023-04-04T08:48:59;100501.28;;;32.33;28.66
23619;BME280;18207;32.078;34.818;2023-04-04T08:51:33;100498.81;;;32.35;28.96
23619;BME280;18207;32.078;34.818;2023-04-04T08:54:04;100498.78;;;32.38;28.33
23619;BME280;18207;32.078;34.818;2023-04-04T08:56:36;100495.91;;;32.42;28.77
23619;BME280;18207;32.078;34.818;2023-04-04T08:59:06;100499.94;;;32.44;28.77
23619;BME280;18207;32.078;34.818;2023-04-04T09:01:40;100493.78;;;32.49;28.07
23619;BME280;18207;32.078;34.818;2023-04-04T09:04:10;100501.84;;;32.54;28.32
23619;BME280;18207;32.078;34.818;2023-04-04T09:06:41;100498.97;;;32.58;28.51
23619;BME280;18207;32.078;34.818;2023-04-04T09:09:12;100496.09;;;32.61;27.92
23619;BME280;18207;32.078;34.818;2023-04-04T09:11:44;100498.50;;;32.66;28.27
23619;BME280;18207;32.078;34.818;2023-04-04T09:14:15;100489.47;;;32.71;27.64
23619;BME280;18207;32.078;34.818;2023-04-04T09:16:49;100486.63;;;32.75;27.58
23619;BME280;18207;32.078;34.818;2023-04-04T09:19:21;100482.13;;;32.77;28.29
23619;BME280;18207;32.078;34.818;2023-04-04T09:21:53;100484.09;;;32.80;27.61
23619;BME280;18207;32.078;34.818;2023-04-04T09:24:24;100487.31;;;32.82;27.62
23619;BME280;18207;32.078;34.818;2023-04-04T09:27:07;100486.09;;;32.83;27.72
23619;BME280;18207;32.078;34.818;2023-04-04T09:29:39;100486.47;;;32.85;27.58
23619;BME280;18207;32.078;34.818;2023-04-04T09:32:14;100491.75;;;32.87;27.59
23619;BME280;18207;32.078;34.818;2023-04-04T09:34:45;100486.03;;;32.87;28.04
23619;BME280;18207;32.078;34.818;2023-04-04T09:37:17;100479.50;;;32.90;27.30
23619;BME280;18207;32.078;34.818;2023-04-04T09:39:48;100487.63;;;32.91;27.45
23619;BME280;18207;32.078;34.818;2023-04-04T09:42:18;100487.22;;;32.93;27.90
23619;BME280;18207;32.078;34.818;2023-04-04T09:44:53;100469.69;;;32.94;27.37
23619;BME280;18207;32.078;34.818;2023-04-04T09:47:27;100474.94;;;32.96;27.51
23619;BME280;18207;32.078;34.818;2023-04-04T09:50:00;100472.91;;;32.96;27.62
23619;BME280;18207;32.078;34.818;2023-04-04T09:52:32;100481.03;;;32.98;27.42
23619;BME280;18207;32.078;34.818;2023-04-04T09:55:04;100474.09;;;32.99;27.58
23619;BME280;18207;32.078;34.818;2023-04-04T09:57:35;100477.34;;;33.01;26.98
23619;BME280;18207;32.078;34.818;2023-04-04T10:00:08;100467.56;;;33.02;27.33
23619;BME280;18207;32.078;34.818;2023-04-04T10:02:47;100470.78;;;33.04;26.92
23619;BME280;18207;32.078;34.818;2023-04-04T10:05:19;100464.66;;;33.05;26.89
23619;BME280;18207;32.078;34.818;2023-04-04T10:07:50;100466.28;;;33.06;26.82
23619;BME280;18207;32.078;34.818;2023-04-04T10:10:21;100472.34;;;33.08;26.58
23619;BME280;18207;32.078;34.818;2023-04-04T10:12:56;100469.09;;;33.10;26.82
23619;BME280;18207;32.078;34.818;2023-04-04T10:15:35;100462.16;;;33.11;26.52
23619;BME280;18207;32.078;34.818;2023-04-04T10:18:08;100470.72;;;33.11;26.36
23619;BME280;18207;32.078;34.818;2023-04-04T10:20:39;100471.50;;;33.11;26.27
23619;BME280;18207;32.078;34.818;2023-04-04T10:23:13;100461.72;;;33.12;26.63
23619;BME280;18207;32.078;34.818;2023-04-04T10:25:44;100462.13;;;33.14;26.64
23619;BME280;18207;32.078;34.818;2023-04-04T10:28:17;100464.13;;;33.17;26.47
23619;BME280;18207;32.078;34.818;2023-04-04T10:30:56;100462.06;;;33.17;26.14
23619;BME280;18207;32.078;34.818;2023-04-04T10:33:43;100449.06;;;33.16;26.83
23619;BME280;18207;32.078;34.818;2023-04-04T10:36:22;100449.06;;;33.16;26.08
23619;BME280;18207;32.078;34.818;2023-04-04T10:39:03;100451.06;;;33.19;25.86
23619;BME280;18207;32.078;34.818;2023-04-04T10:41:37;100460.38;;;33.20;26.34
23619;BME280;18207;32.078;34.818;2023-04-04T10:44:19;100451.44;;;33.21;26.13
23619;BME280;18207;32.078;34.818;2023-04-04T10:46:53;100458.75;;;33.22;25.84
23619;BME280;18207;32.078;34.818;2023-04-04T10:49:28;100457.53;;;33.23;26.39
23619;BME280;18207;32.078;34.818;2023-04-04T10:51:58;100457.88;;;33.25;25.89
23619;BME280;18207;32.078;34.818;2023-04-04T10:54:29;100456.63;;;33.26;25.98
23619;BME280;18207;32.078;34.818;2023-04-04T10:57:01;100465.56;;;33.28;25.51
23619;BME280;18207;32.078;34.818;2023-04-04T10:59:31;100458.63;;;33.29;25.46
23619;BME280;18207;32.078;34.818;2023-04-04T11:02:02;100455.78;;;33.29;25.38
23619;BME280;18207;32.078;34.818;2023-04-04T11:04:38;100452.50;;;33.31;25.58
23619;BME280;18207;32.078;34.818;2023-04-04T11:07:15;100451.72;;;33.30;25.48
23619;BME280;18207;32.078;34.818;2023-04-04T11:09:52;100453.31;;;33.31;25.21
23619;BME280;18207;32.078;34.818;2023-04-04T11:12:32;100461.03;;;33.31;25.14
23619;BME280;18207;32.078;34.818;2023-04-04T11:15:13;100448.03;;;33.30;25.24
23619;BME280;18207;32.078;34.818;2023-04-04T11:17:59;100443.16;;;33.30;25.22
23619;BME280;18207;32.078;34.818;2023-04-04T11:20:47;100443.56;;;33.29;25.40
23619;BME280;18207;32.078;34.818;2023-04-04T11:23:20;100452.94;;;33.29;25.51
23619;BME280;18207;32.078;34.818;2023-04-04T11:25:55;100442.78;;;33.28;24.89
23619;BME280;18207;32.078;34.818;2023-04-04T11:28:42;100444.41;;;33.29;25.22
23619;BME280;18207;32.078;34.818;2023-04-04T11:31:26;100442.78;;;33.28;24.88
23619;BME280;18207;32.078;34.818;2023-04-04T11:34:01;100438.31;;;33.27;25.09
23619;BME280;18207;32.078;34.818;2023-04-04T11:36:52;100426.13;;;33.27;25.26
23619;BME280;18207;32.078;34.818;2023-04-04T11:39:26;100427.34;;;33.26;24.49
23619;BME280;18207;32.078;34.818;2023-04-04T11:42:05;100423.69;;;33.25;24.45
23619;BME280;18207;32.078;34.818;2023-04-04T11:44:41;100422.88;;;33.25;24.46
23619;BME280;18207;32.078;34.818;2023-04-04T11:47:12;100414.34;;;33.25;24.93
23619;BME280;18207;32.078;34.818;2023-04-04T11:49:44;100417.19;;;33.25;24.44
23619;BME280;18207;32.078;34.818;2023-04-04T11:52:17;100412.28;;;33.25;24.80
23619;BME280;18207;32.078;34.818;2023-04-04T11:54:49;100411.50;;;33.25;24.81
23619;BME280;18207;32.078;34.818;2023-04-04T11:57:20;100411.09;;;33.23;24.21
23619;BME280;18207;32.078;34.818;2023-04-04T11:59:50;100409.50;;;33.22;24.67
23619;BME280;18207;32.078;34.818;2023-04-04T12:02:23;100411.53;;;33.21;24.58
23619;BME280;18207;32.078;34.818;2023-04-04T12:04:59;100409.94;;;33.20;24.32
23619;BME280;18207;32.078;34.818;2023-04-04T12:07:34;100405.47;;;33.19;24.36
23619;BME280;18207;32.078;34.818;2023-04-04T12:10:06;100400.22;;;33.18;24.36
23619;BME280;18207;32.078;34.818;2023-04-04T12:12:37;100405.53;;;33.16;24.10
23619;BME280;18207;32.078;34.818;2023-04-04T12:15:12;100408.00;;;33.14;24.03
23619;BME280;18207;32.078;34.818;2023-04-04T12:17:45;100412.06;;;33.13;24.05
23619;BME280;18207;32.078;34.818;2023-04-04T12:20:22;100421.84;;;33.12;24.30
23619;BME280;18207;32.078;34.818;2023-04-04T12:22:55;100423.91;;;33.12;23.81
23619;BME280;18207;32.078;34.818;2023-04-04T12:25:26;100420.69;;;33.10;23.73
23619;BME280;18207;32.078;34.818;2023-04-04T12:28:06;100421.09;;;33.08;23.50
23619;BME280;18207;32.078;34.818;2023-04-04T12:30:39;100417.41;;;33.08;23.97
23619;BME280;18207;32.078;34.818;2023-04-04T12:33:10;100432.09;;;33.06;23.46
23619;BME280;18207;32.078;34.818;2023-04-04T12:35:40;100426.81;;;33.05;23.24
23619;BME280;18207;32.078;34.818;2023-04-04T12:38:21;100426.00;;;33.04;23.69
23619;BME280;18207;32.078;34.818;2023-04-04T12:40:52;100424.84;;;33.02;23.17
23619;BME280;18207;32.078;34.818;2023-04-04T12:43:26;100430.53;;;33.02;23.62
23619;BME280;18207;32.078;34.818;2023-04-04T12:45:57;100431.38;;;32.99;23.57
23619;BME280;18207;32.078;34.818;2023-04-04T12:48:28;100428.97;;;32.97;23.33
23619;BME280;18207;32.078;34.818;2023-04-04T12:51:00;100428.59;;;32.95;22.91
23619;BME280;18207;32.078;34.818;2023-04-04T12:53:49;100434.28;;;32.95;22.99
23619;BME280;18207;32.078;34.818;2023-04-04T12:56:25;100433.88;;;32.93;23.29
23619;BME280;18207;32.078;34.818;2023-04-04T12:59:00;100430.25;;;32.93;22.84
23619;BME280;18207;32.078;34.818;2023-04-04T13:01:32;100430.66;;;32.91;22.93
23619;BME280;18207;32.078;34.818;2023-04-04T13:04:03;100430.66;;;32.91;23.49
23619;BME280;18207;32.078;34.818;2023-04-04T13:06:36;100432.72;;;32.91;23.19